Huron, Ohio
Current Conditions -  °F | °C
As of 9:13 AM on Thursday 29 Jan 2015 (Local Time) from KPCW Reporting Station
Light Rain Light Rain  
Wind Chill: 29°   Ceiling: 5000
Heat Index: 37°   Visibility: 10mi
Dew Point: 28°   Wind: 14mph
Humidity: 70%   Direction: 190°S
Pressure: 29.78"   Gusts: NA
Location:  41.39°N, 82.56°W
Report Text: KPCW 291413Z AUTO 19012KT 10SM -RA OVC050 03/M02 A2978 RMK AO2 RAB08 $
Loading
Personal Weather Stations






























Interactive Weather Map New forecast layout! Learn more

10-Day Weather Forecast

Advertisements
Track Severe Weather on mobile